DLH312 EDDB-EDDH
Flight info
| Callsign | DLH312 |
|---|---|
| Flight time | 0h 38m |
| Altitude | 24000 |
| Route | SUKIP3Q/06R SUKIP M748 RARUP RARUP6A |
| Aircraft | A32N/M-V/N |
Departure
| Time | 2026-05-05 15:09 |
|---|---|
| Airport | Berlin Brandenburg Airport (EDDB) |
Arrival
| Time | 2026-05-05 15:47 |
|---|---|
| Airport | Hamburg Helmut Schmidt Airport (EDDH) |
| Time | Latitude | Longitude | Altitude | Speed | Heading |
|---|---|---|---|---|---|
| 2026-05-05 14:31 | 52.36389 | 13.50597 | 155 ft | 0 kts | 77° |
| 2026-05-05 14:55 | 52.36389 | 13.50596 | 155 ft | 1 kts | 77° |
| 2026-05-05 14:56 | 52.36384 | 13.50555 | 154 ft | 3 kts | 79° |
| 2026-05-05 14:56 | 52.36379 | 13.50512 | 155 ft | 4 kts | 84° |
| 2026-05-05 14:56 | 52.36378 | 13.50468 | 154 ft | 4 kts | 102° |
| 2026-05-05 14:56 | 52.36388 | 13.50437 | 153 ft | 2 kts | 160° |
| 2026-05-05 14:57 | 52.36389 | 13.50436 | 153 ft | 1 kts | 161° |
| 2026-05-05 14:58 | 52.36388 | 13.50437 | 153 ft | 1 kts | 161° |
| 2026-05-05 14:59 | 52.36340 | 13.50466 | 153 ft | 16 kts | 159° |
| 2026-05-05 14:59 | 52.36187 | 13.50569 | 154 ft | 29 kts | 158° |
| 2026-05-05 14:59 | 52.36028 | 13.50664 | 154 ft | 0 kts | 159° |
| 2026-05-05 15:01 | 52.36024 | 13.50667 | 154 ft | 3 kts | 158° |
| 2026-05-05 15:02 | 52.35997 | 13.50685 | 154 ft | 5 kts | 156° |
| 2026-05-05 15:02 | 52.35935 | 13.50724 | 155 ft | 17 kts | 164° |
| 2026-05-05 15:02 | 52.35813 | 13.50807 | 154 ft | 22 kts | 153° |
| 2026-05-05 15:02 | 52.35728 | 13.50820 | 156 ft | 12 kts | 220° |
| 2026-05-05 15:03 | 52.35714 | 13.50780 | 156 ft | 8 kts | 240° |
| 2026-05-05 15:03 | 52.35681 | 13.50648 | 157 ft | 17 kts | 251° |
| 2026-05-05 15:03 | 52.35631 | 13.50430 | 156 ft | 24 kts | 249° |
| 2026-05-05 15:03 | 52.35563 | 13.50147 | 156 ft | 30 kts | 249° |
| 2026-05-05 15:04 | 52.35481 | 13.49804 | 155 ft | 35 kts | 249° |
| 2026-05-05 15:04 | 52.35408 | 13.49490 | 160 ft | 30 kts | 247° |
| 2026-05-05 15:04 | 52.35337 | 13.49191 | 163 ft | 22 kts | 247° |
| 2026-05-05 15:04 | 52.35272 | 13.48921 | 159 ft | 29 kts | 248° |
| 2026-05-05 15:05 | 52.35142 | 13.48548 | 159 ft | 8 kts | 171° |
| 2026-05-05 15:05 | 52.35132 | 13.48553 | 159 ft | 0 kts | 154° |
| 2026-05-05 15:07 | 52.35131 | 13.48553 | 159 ft | 1 kts | 154° |
| 2026-05-05 15:07 | 52.35105 | 13.48623 | 159 ft | 10 kts | 97° |
| 2026-05-05 15:08 | 52.35085 | 13.48841 | 159 ft | 26 kts | 97° |
| 2026-05-05 15:08 | 52.35106 | 13.49194 | 159 ft | 38 kts | 68° |
| 2026-05-05 15:08 | 52.35328 | 13.50145 | 156 ft | 139 kts | 69° |
| 2026-05-05 15:08 | 52.35748 | 13.51928 | 629 ft | 184 kts | 71° |
| 2026-05-05 15:09 | 52.36070 | 13.54098 | 1781 ft | 206 kts | 93° |
| 2026-05-05 15:09 | 52.35566 | 13.56194 | 3395 ft | 202 kts | 133° |
| 2026-05-05 15:09 | 52.34382 | 13.57393 | 4716 ft | 207 kts | 168° |
| 2026-05-05 15:09 | 52.32961 | 13.57268 | 5962 ft | 206 kts | 203° |
| 2026-05-05 15:10 | 52.31800 | 13.55944 | 7169 ft | 205 kts | 227° |
| 2026-05-05 15:10 | 52.30895 | 13.54125 | 8365 ft | 208 kts | 234° |
| 2026-05-05 15:10 | 52.29892 | 13.52307 | 9388 ft | 226 kts | 224° |
| 2026-05-05 15:10 | 52.28642 | 13.50575 | 10186 ft | 249 kts | 219° |
| 2026-05-05 15:11 | 52.27248 | 13.48715 | 10921 ft | 271 kts | 228° |
| 2026-05-05 15:11 | 52.26304 | 13.45984 | 11859 ft | 282 kts | 255° |
| 2026-05-05 15:11 | 52.26103 | 13.42782 | 13061 ft | 287 kts | 268° |
| 2026-05-05 15:11 | 52.26140 | 13.39493 | 14165 ft | 292 kts | 270° |
| 2026-05-05 15:12 | 52.26214 | 13.36147 | 15100 ft | 296 kts | 270° |
| 2026-05-05 15:12 | 52.26269 | 13.32808 | 15600 ft | 299 kts | 269° |
| 2026-05-05 15:12 | 52.26296 | 13.29411 | 15854 ft | 300 kts | 269° |
| 2026-05-05 15:12 | 52.26303 | 13.26000 | 15980 ft | 301 kts | 268° |
| 2026-05-05 15:13 | 52.26049 | 13.22625 | 16004 ft | 299 kts | 255° |
| 2026-05-05 15:13 | 52.25306 | 13.19456 | 16004 ft | 299 kts | 242° |
| 2026-05-05 15:13 | 52.24215 | 13.16525 | 16003 ft | 315 kts | 238° |
| 2026-05-05 15:13 | 52.23020 | 13.13352 | 16006 ft | 345 kts | 239° |
| 2026-05-05 15:14 | 52.21749 | 13.09946 | 16003 ft | 348 kts | 239° |
| 2026-05-05 15:14 | 52.20499 | 13.06591 | 16091 ft | 351 kts | 239° |
| 2026-05-05 15:14 | 52.19224 | 13.03169 | 16900 ft | 353 kts | 239° |
| 2026-05-05 15:14 | 52.17946 | 12.99747 | 18039 ft | 355 kts | 239° |
| 2026-05-05 15:15 | 52.16799 | 12.96168 | 18905 ft | 359 kts | 246° |
| 2026-05-05 15:15 | 52.15940 | 12.92322 | 19749 ft | 364 kts | 253° |
| 2026-05-05 15:15 | 52.15355 | 12.88322 | 20591 ft | 369 kts | 256° |
| 2026-05-05 15:15 | 52.14791 | 12.84213 | 21419 ft | 374 kts | 256° |
| 2026-05-05 15:16 | 52.14213 | 12.80064 | 22239 ft | 378 kts | 256° |
| 2026-05-05 15:16 | 52.13629 | 12.75855 | 23069 ft | 383 kts | 257° |
| 2026-05-05 15:16 | 52.13454 | 12.71491 | 23609 ft | 391 kts | 271° |
| 2026-05-05 15:16 | 52.13991 | 12.67175 | 23791 ft | 397 kts | 286° |
| 2026-05-05 15:17 | 52.15251 | 12.63141 | 23855 ft | 404 kts | 301° |
| 2026-05-05 15:17 | 52.17144 | 12.59726 | 23863 ft | 411 kts | 314° |
| 2026-05-05 15:17 | 52.19292 | 12.56638 | 23860 ft | 411 kts | 315° |
| 2026-05-05 15:17 | 52.21458 | 12.53579 | 23858 ft | 411 kts | 315° |
| 2026-05-05 15:18 | 52.23599 | 12.50510 | 23860 ft | 411 kts | 315° |
| 2026-05-05 15:18 | 52.25727 | 12.47391 | 23857 ft | 410 kts | 313° |
| 2026-05-05 15:18 | 52.27675 | 12.44093 | 23863 ft | 408 kts | 309° |
| 2026-05-05 15:18 | 52.29618 | 12.40718 | 23860 ft | 408 kts | 309° |
| 2026-05-05 15:19 | 52.31568 | 12.37340 | 23863 ft | 408 kts | 309° |
| 2026-05-05 15:19 | 52.33541 | 12.34007 | 23862 ft | 409 kts | 313° |
| 2026-05-05 15:19 | 52.35682 | 12.30924 | 23867 ft | 410 kts | 315° |
| 2026-05-05 15:19 | 52.37830 | 12.27848 | 23867 ft | 410 kts | 315° |
| 2026-05-05 15:20 | 52.39973 | 12.24765 | 23867 ft | 410 kts | 315° |
| 2026-05-05 15:20 | 52.42112 | 12.21679 | 23872 ft | 410 kts | 315° |
| 2026-05-05 15:20 | 52.44224 | 12.18626 | 23871 ft | 410 kts | 315° |
| 2026-05-05 15:20 | 52.46360 | 12.15536 | 23872 ft | 409 kts | 315° |
| 2026-05-05 15:21 | 52.48487 | 12.12456 | 23875 ft | 409 kts | 315° |
| 2026-05-05 15:21 | 52.50620 | 12.09363 | 23874 ft | 409 kts | 315° |
| 2026-05-05 15:21 | 52.52749 | 12.06273 | 23873 ft | 409 kts | 314° |
| 2026-05-05 15:21 | 52.54882 | 12.03171 | 23877 ft | 408 kts | 314° |
| 2026-05-05 15:22 | 52.57009 | 12.00074 | 23875 ft | 408 kts | 314° |
| 2026-05-05 15:22 | 52.59131 | 11.96980 | 23878 ft | 408 kts | 314° |
| 2026-05-05 15:22 | 52.61257 | 11.93878 | 23878 ft | 408 kts | 314° |
| 2026-05-05 15:22 | 52.63349 | 11.90830 | 23878 ft | 408 kts | 315° |
| 2026-05-05 15:23 | 52.65586 | 11.87946 | 23882 ft | 409 kts | 319° |
| 2026-05-05 15:23 | 52.67851 | 11.85097 | 23884 ft | 409 kts | 319° |
| 2026-05-05 15:23 | 52.70105 | 11.82250 | 23885 ft | 408 kts | 318° |
| 2026-05-05 15:23 | 52.72362 | 11.79393 | 23885 ft | 408 kts | 318° |
| 2026-05-05 15:24 | 52.74611 | 11.76539 | 23884 ft | 408 kts | 318° |
| 2026-05-05 15:24 | 52.76859 | 11.73684 | 23887 ft | 407 kts | 318° |
| 2026-05-05 15:24 | 52.79102 | 11.70831 | 23887 ft | 407 kts | 318° |
| 2026-05-05 15:24 | 52.81315 | 11.68013 | 23886 ft | 407 kts | 318° |
| 2026-05-05 15:25 | 52.83556 | 11.65156 | 23888 ft | 407 kts | 318° |
| 2026-05-05 15:25 | 52.85792 | 11.62301 | 23886 ft | 406 kts | 318° |
| 2026-05-05 15:25 | 52.88018 | 11.59454 | 23889 ft | 406 kts | 318° |
| 2026-05-05 15:25 | 52.90240 | 11.56610 | 23889 ft | 405 kts | 318° |
| 2026-05-05 15:26 | 52.92461 | 11.53763 | 23893 ft | 405 kts | 318° |
| 2026-05-05 15:26 | 52.94675 | 11.50922 | 23893 ft | 404 kts | 318° |
| 2026-05-05 15:26 | 52.96896 | 11.48068 | 23895 ft | 404 kts | 318° |
| 2026-05-05 15:26 | 52.99119 | 11.45211 | 23892 ft | 404 kts | 318° |
| 2026-05-05 15:27 | 53.01293 | 11.42411 | 23896 ft | 403 kts | 318° |
| 2026-05-05 15:27 | 53.03505 | 11.39559 | 23900 ft | 403 kts | 318° |
| 2026-05-05 15:27 | 53.05715 | 11.36706 | 23900 ft | 403 kts | 318° |
| 2026-05-05 15:27 | 53.07934 | 11.33845 | 23894 ft | 403 kts | 318° |
| 2026-05-05 15:28 | 53.10146 | 11.30998 | 23894 ft | 402 kts | 318° |
| 2026-05-05 15:28 | 53.12375 | 11.28167 | 23901 ft | 403 kts | 320° |
| 2026-05-05 15:28 | 53.14686 | 11.25522 | 23904 ft | 403 kts | 321° |
| 2026-05-05 15:28 | 53.16998 | 11.22865 | 23900 ft | 403 kts | 321° |
| 2026-05-05 15:29 | 53.19299 | 11.20210 | 23897 ft | 403 kts | 321° |
| 2026-05-05 15:29 | 53.21575 | 11.17580 | 23902 ft | 402 kts | 321° |
| 2026-05-05 15:29 | 53.23899 | 11.14890 | 23902 ft | 402 kts | 321° |
| 2026-05-05 15:29 | 53.26167 | 11.12160 | 23910 ft | 399 kts | 315° |
| 2026-05-05 15:30 | 53.27976 | 11.08807 | 23909 ft | 392 kts | 300° |
| 2026-05-05 15:30 | 53.29163 | 11.04772 | 23909 ft | 386 kts | 285° |
| 2026-05-05 15:30 | 53.29622 | 11.00395 | 23885 ft | 382 kts | 270° |
| 2026-05-05 15:30 | 53.29340 | 10.96015 | 23669 ft | 377 kts | 255° |
| 2026-05-05 15:31 | 53.28432 | 10.91918 | 23068 ft | 375 kts | 246° |
| 2026-05-05 15:31 | 53.27303 | 10.88012 | 22332 ft | 373 kts | 244° |
| 2026-05-05 15:31 | 53.26527 | 10.85460 | 21857 ft | 372 kts | 243° |
| 2026-05-05 15:31 | 53.24947 | 10.80334 | 20851 ft | 369 kts | 244° |
| 2026-05-05 15:32 | 53.24265 | 10.77739 | 20363 ft | 368 kts | 251° |
| 2026-05-05 15:32 | 53.23694 | 10.72214 | 19395 ft | 366 kts | 269° |
| 2026-05-05 15:32 | 53.23922 | 10.68005 | 18722 ft | 365 kts | 278° |
| 2026-05-05 15:32 | 53.24482 | 10.63875 | 18026 ft | 363 kts | 284° |
| 2026-05-05 15:33 | 53.24954 | 10.61148 | 17548 ft | 361 kts | 285° |
| 2026-05-05 15:33 | 53.25695 | 10.57217 | 16877 ft | 358 kts | 287° |
| 2026-05-05 15:33 | 53.26459 | 10.53277 | 16190 ft | 355 kts | 287° |
| 2026-05-05 15:33 | 53.27211 | 10.49384 | 15523 ft | 352 kts | 287° |
| 2026-05-05 15:34 | 53.27952 | 10.45507 | 14874 ft | 349 kts | 287° |
| 2026-05-05 15:34 | 53.28682 | 10.41643 | 14252 ft | 347 kts | 287° |
| 2026-05-05 15:34 | 53.29400 | 10.37822 | 13628 ft | 344 kts | 286° |
| 2026-05-05 15:34 | 53.30112 | 10.34018 | 13069 ft | 338 kts | 286° |
| 2026-05-05 15:35 | 53.30794 | 10.30368 | 12896 ft | 322 kts | 286° |
| 2026-05-05 15:35 | 53.31443 | 10.26891 | 12760 ft | 307 kts | 286° |
| 2026-05-05 15:35 | 53.32262 | 10.22493 | 12530 ft | 292 kts | 286° |
| 2026-05-05 15:35 | 53.32666 | 10.20315 | 12265 ft | 289 kts | 286° |
| 2026-05-05 15:36 | 53.33257 | 10.17127 | 11818 ft | 287 kts | 286° |
| 2026-05-05 15:36 | 53.33846 | 10.13936 | 11364 ft | 286 kts | 286° |
| 2026-05-05 15:36 | 53.34430 | 10.10774 | 10940 ft | 284 kts | 286° |
| 2026-05-05 15:36 | 53.35008 | 10.07637 | 10518 ft | 282 kts | 285° |
| 2026-05-05 15:37 | 53.35582 | 10.04519 | 10104 ft | 280 kts | 285° |
| 2026-05-05 15:37 | 53.36092 | 10.01397 | 9681 ft | 277 kts | 279° |
| 2026-05-05 15:37 | 53.36313 | 9.98245 | 9204 ft | 275 kts | 274° |
| 2026-05-05 15:37 | 53.36475 | 9.95056 | 8759 ft | 273 kts | 274° |
| 2026-05-05 15:38 | 53.36633 | 9.91879 | 8297 ft | 272 kts | 274° |
| 2026-05-05 15:38 | 53.36786 | 9.88728 | 7866 ft | 271 kts | 274° |
| 2026-05-05 15:38 | 53.36937 | 9.85588 | 7431 ft | 269 kts | 274° |
| 2026-05-05 15:38 | 53.37084 | 9.82476 | 7071 ft | 266 kts | 274° |
| 2026-05-05 15:39 | 53.37220 | 9.79479 | 6936 ft | 261 kts | 274° |
| 2026-05-05 15:39 | 53.37358 | 9.76377 | 6894 ft | 269 kts | 274° |
| 2026-05-05 15:39 | 53.37495 | 9.73283 | 6849 ft | 263 kts | 274° |
| 2026-05-05 15:39 | 53.37628 | 9.70294 | 6766 ft | 252 kts | 274° |
| 2026-05-05 15:40 | 53.37810 | 9.67444 | 6670 ft | 241 kts | 284° |
| 2026-05-05 15:40 | 53.38593 | 9.65001 | 6267 ft | 244 kts | 311° |
| 2026-05-05 15:40 | 53.39805 | 9.62939 | 5664 ft | 253 kts | 319° |
| 2026-05-05 15:40 | 53.41246 | 9.61294 | 5456 ft | 245 kts | 320° |
| 2026-05-05 15:41 | 53.42453 | 9.59423 | 5326 ft | 235 kts | 318° |
| 2026-05-05 15:41 | 53.43798 | 9.57919 | 5019 ft | 234 kts | 340° |
| 2026-05-05 15:41 | 53.45394 | 9.57619 | 4717 ft | 233 kts | 10° |
| 2026-05-05 15:41 | 53.46835 | 9.58746 | 4424 ft | 229 kts | 41° |
| 2026-05-05 15:42 | 53.47690 | 9.60956 | 4037 ft | 228 kts | 73° |
| 2026-05-05 15:42 | 53.47892 | 9.63539 | 3684 ft | 225 kts | 84° |
| 2026-05-05 15:42 | 53.48133 | 9.66117 | 3438 ft | 215 kts | 65° |
| 2026-05-05 15:42 | 53.48885 | 9.68262 | 3360 ft | 221 kts | 55° |
| 2026-05-05 15:43 | 53.49767 | 9.70402 | 3264 ft | 222 kts | 54° |
| 2026-05-05 15:43 | 53.50658 | 9.72495 | 3161 ft | 220 kts | 53° |
| 2026-05-05 15:43 | 53.51555 | 9.74561 | 3062 ft | 215 kts | 53° |
| 2026-05-05 15:43 | 53.52421 | 9.76529 | 2965 ft | 204 kts | 52° |
| 2026-05-05 15:44 | 53.53250 | 9.78383 | 2811 ft | 199 kts | 52° |
| 2026-05-05 15:44 | 53.54089 | 9.80231 | 2559 ft | 198 kts | 52° |
| 2026-05-05 15:44 | 53.54932 | 9.82064 | 2311 ft | 198 kts | 51° |
| 2026-05-05 15:44 | 53.55782 | 9.83884 | 2036 ft | 196 kts | 51° |
| 2026-05-05 15:45 | 53.56631 | 9.85675 | 1776 ft | 195 kts | 51° |
| 2026-05-05 15:45 | 53.57472 | 9.87436 | 1506 ft | 194 kts | 51° |
| 2026-05-05 15:45 | 53.58304 | 9.89173 | 1376 ft | 180 kts | 51° |
| 2026-05-05 15:45 | 53.59013 | 9.90653 | 1214 ft | 151 kts | 51° |
| 2026-05-05 15:46 | 53.59653 | 9.92032 | 800 ft | 145 kts | 51° |
| 2026-05-05 15:46 | 53.60290 | 9.93268 | 560 ft | 132 kts | 47° |
| 2026-05-05 15:46 | 53.60841 | 9.94323 | 383 ft | 112 kts | 51° |
| 2026-05-05 15:46 | 53.61303 | 9.95321 | 221 ft | 104 kts | 51° |
| 2026-05-05 15:47 | 53.61733 | 9.96194 | 115 ft | 95 kts | 50° |
| 2026-05-05 15:47 | 53.62174 | 9.97088 | 46 ft | 90 kts | 44° |
| 2026-05-05 15:47 | 53.62390 | 9.97511 | 44 ft | 45 kts | 48° |
| 2026-05-05 15:47 | 53.62469 | 9.97687 | 44 ft | 1 kts | 80° |
| 2026-05-05 15:48 | 53.62449 | 9.97814 | 44 ft | 8 kts | 130° |
| 2026-05-05 15:48 | 53.62431 | 9.97923 | 44 ft | 12 kts | 87° |
| 2026-05-05 15:48 | 53.62457 | 9.98080 | 42 ft | 14 kts | 49° |
| 2026-05-05 15:48 | 53.62520 | 9.98205 | 45 ft | 16 kts | 50° |
| 2026-05-05 15:49 | 53.62602 | 9.98377 | 45 ft | 21 kts | 52° |
| 2026-05-05 15:49 | 53.62698 | 9.98571 | 46 ft | 22 kts | 51° |
| 2026-05-05 15:49 | 53.62802 | 9.98785 | 46 ft | 25 kts | 50° |
| 2026-05-05 15:49 | 53.62906 | 9.98985 | 47 ft | 22 kts | 49° |
| 2026-05-05 15:50 | 53.62959 | 9.99095 | 47 ft | 0 kts | 51° |
| 2026-05-05 15:50 | 53.62963 | 9.99102 | 47 ft | 6 kts | 51° |
| 2026-05-05 15:50 | 53.63019 | 9.99217 | 47 ft | 19 kts | 49° |
| 2026-05-05 15:51 | 53.63066 | 9.99316 | 47 ft | 2 kts | 53° |
| 2026-05-05 15:51 | 53.63127 | 9.99464 | 48 ft | 26 kts | 54° |
| 2026-05-05 15:51 | 53.63219 | 9.99662 | 48 ft | 0 kts | 51° |
| 2026-05-05 15:52 | 53.63219 | 9.99663 | 48 ft | 2 kts | 51° |
| 2026-05-05 15:52 | 53.63261 | 9.99733 | 49 ft | 15 kts | 42° |
| 2026-05-05 15:52 | 53.63353 | 9.99911 | 50 ft | 26 kts | 50° |
| 2026-05-05 15:53 | 53.63421 | 10.00049 | 51 ft | 0 kts | 51° |
| 2026-05-05 15:53 | 53.63434 | 10.00076 | 51 ft | 5 kts | 51° |
| 2026-05-05 15:53 | 53.63449 | 10.00130 | 51 ft | 6 kts | 103° |
| 2026-05-05 15:53 | 53.63448 | 10.00248 | 47 ft | 9 kts | 83° |
| 2026-05-05 15:54 | 53.63450 | 10.00286 | 49 ft | 2 kts | 89° |
| 2026-05-05 15:54 | 53.63450 | 10.00308 | 48 ft | 0 kts | 91° |
| 2026-05-05 15:54 | 53.63450 | 10.00311 | 48 ft | 0 kts | 91° |